createdAt,value
2023-03-28T00:01:03.604Z,1.20
2023-03-28T00:03:35.614Z,1.27
2023-03-28T00:06:04.089Z,1.30
2023-03-28T00:08:30.784Z,1.17
2023-03-28T00:11:11.407Z,1.37
2023-03-28T00:13:38.130Z,1.10
2023-03-28T00:16:08.140Z,1.40
2023-03-28T00:18:39.124Z,1.30
2023-03-28T00:21:27.301Z,1.10
2023-03-28T00:23:56.012Z,1.07
2023-03-28T00:26:27.316Z,1.17
2023-03-28T00:28:54.748Z,1.50
2023-03-28T00:31:21.840Z,1.30
2023-03-28T00:33:48.426Z,1.60
2023-03-28T00:36:18.496Z,1.00
2023-03-28T00:38:45.931Z,1.10
2023-03-28T00:41:15.974Z,1.13
2023-03-28T00:43:44.920Z,1.20
2023-03-28T00:46:29.905Z,1.30
2023-03-28T00:49:04.144Z,1.33
2023-03-28T00:51:37.572Z,1.10
2023-03-28T00:54:05.848Z,1.27
2023-03-28T00:56:34.561Z,1.23
2023-03-28T00:59:03.682Z,1.30
2023-03-28T01:01:30.184Z,1.23
2023-03-28T01:04:10.257Z,1.50
2023-03-28T01:10:24.039Z,1.10
2023-03-28T01:12:51.712Z,1.10
2023-03-28T01:15:18.423Z,1.20
2023-03-28T01:17:46.592Z,1.27
2023-03-28T01:20:29.953Z,1.20
2023-03-28T01:23:44.724Z,1.20
2023-03-28T01:26:32.460Z,1.40
2023-03-28T01:29:02.033Z,1.40
2023-03-28T01:31:59.223Z,1.27
2023-03-28T01:34:52.050Z,1.30
2023-03-28T01:37:35.085Z,1.20
2023-03-28T01:40:07.569Z,1.17
2023-03-28T01:43:03.293Z,1.50
2023-03-28T01:45:36.640Z,1.40
2023-03-28T01:48:06.282Z,1.30
2023-03-28T01:50:37.786Z,1.70
2023-03-28T01:53:26.390Z,1.30
2023-03-28T01:55:58.779Z,1.47
2023-03-28T01:58:36.943Z,1.30
2023-03-28T02:01:08.026Z,1.20
2023-03-28T02:03:42.011Z,1.20
2023-03-28T02:06:09.785Z,1.47
2023-03-28T02:08:41.139Z,1.40
2023-03-28T02:11:09.894Z,1.27
2023-03-28T02:13:41.228Z,1.20
2023-03-28T02:16:08.226Z,1.40
2023-03-28T02:18:38.150Z,1.40
2023-03-28T02:21:07.728Z,1.30
2023-03-28T02:23:42.586Z,1.20
2023-03-28T02:26:09.705Z,1.30
2023-03-28T02:28:39.624Z,1.40
2023-03-28T02:31:07.251Z,1.50
2023-03-28T02:33:41.264Z,1.47
2023-03-28T02:36:37.321Z,1.33
2023-03-28T02:39:17.845Z,1.40
2023-03-28T02:41:52.163Z,1.70
2023-03-28T02:44:36.857Z,1.60
2023-03-28T02:47:09.251Z,1.50
2023-03-28T02:49:57.310Z,1.70
2023-03-28T02:52:53.115Z,1.50
2023-03-28T02:55:28.974Z,1.40
2023-03-28T02:57:59.825Z,1.40
2023-03-28T03:00:26.371Z,1.40
2023-03-28T03:02:54.005Z,1.60
2023-03-28T03:05:21.282Z,1.50
2023-03-28T03:07:49.846Z,1.40
2023-03-28T03:10:17.219Z,1.70
2023-03-28T03:12:44.688Z,1.60
2023-03-28T03:15:11.824Z,1.50
2023-03-28T03:17:38.460Z,1.60
2023-03-28T03:20:06.915Z,1.53
2023-03-28T03:22:34.527Z,1.70
2023-03-28T03:25:06.751Z,1.50
2023-03-28T03:27:34.670Z,1.53
2023-03-28T03:30:01.488Z,1.70
2023-03-28T03:32:28.179Z,1.80
2023-03-28T03:34:54.658Z,1.50
2023-03-28T03:37:21.347Z,1.57
2023-03-28T03:39:47.822Z,1.47
2023-03-28T03:42:14.611Z,1.40
2023-03-28T03:44:41.181Z,1.67
2023-03-28T03:47:07.671Z,1.83
2023-03-28T03:49:34.097Z,2.00
2023-03-28T03:52:00.725Z,2.00
2023-03-28T03:54:27.377Z,1.97
2023-03-28T03:56:53.941Z,1.90
2023-03-28T03:59:20.867Z,2.07
2023-03-28T04:01:47.455Z,2.10
2023-03-28T04:04:14.156Z,2.20
2023-03-28T04:06:40.771Z,2.23
2023-03-28T04:09:10.715Z,2.10
2023-03-28T04:11:37.559Z,2.10
2023-03-28T04:14:04.484Z,2.00
2023-03-28T04:16:40.293Z,2.00
2023-03-28T04:19:08.150Z,2.10
2023-03-28T04:21:35.338Z,1.93
2023-03-28T04:24:01.982Z,1.97
2023-03-28T04:26:29.417Z,1.73
2023-03-28T04:28:57.220Z,1.50
2023-03-28T04:31:29.660Z,2.10
2023-03-28T04:33:56.683Z,2.00
2023-03-28T04:36:25.881Z,2.00
2023-03-28T04:38:52.653Z,1.80
2023-03-28T04:41:19.134Z,2.00
2023-03-28T04:43:45.627Z,1.77
2023-03-28T04:46:12.156Z,2.00
2023-03-28T04:48:38.619Z,2.20
2023-03-28T04:51:05.557Z,2.07
2023-03-28T04:53:32.051Z,2.07
2023-03-28T04:56:00.151Z,1.87
2023-03-28T04:58:26.849Z,2.00
2023-03-28T05:00:54.001Z,2.20
2023-03-28T05:03:22.570Z,2.33
2023-03-28T05:05:51.450Z,2.00
2023-03-28T05:08:23.573Z,2.10
2023-03-28T05:10:50.998Z,2.00
2023-03-28T05:13:18.104Z,1.60
2023-03-28T05:15:50.830Z,1.97
2023-03-28T05:18:17.403Z,2.03
2023-03-28T05:20:43.964Z,1.90
2023-03-28T05:23:10.675Z,1.97
2023-03-28T05:25:37.213Z,2.10
2023-03-28T05:28:04.522Z,2.50
2023-03-28T05:30:31.540Z,2.90
2023-03-28T05:32:59.568Z,2.60
2023-03-28T05:35:26.938Z,3.47
2023-03-28T05:37:53.467Z,4.30
2023-03-28T05:40:20.202Z,4.30
2023-03-28T05:42:46.706Z,4.70
2023-03-28T05:45:15.386Z,4.67
2023-03-28T05:47:41.936Z,5.40
2023-03-28T05:50:09.045Z,5.37
2023-03-28T05:52:35.607Z,6.33
2023-03-28T05:55:02.059Z,6.40
2023-03-28T05:57:28.553Z,6.30
2023-03-28T05:59:55.910Z,5.63
2023-03-28T06:02:23.765Z,4.63
2023-03-28T06:04:53.517Z,2.70
2023-03-28T06:07:25.406Z,2.73
2023-03-28T06:09:58.239Z,2.33
2023-03-28T06:12:25.097Z,2.40
2023-03-28T06:14:51.692Z,2.20
2023-03-28T06:17:18.244Z,2.50
2023-03-28T06:19:44.744Z,2.30
2023-03-28T06:22:11.282Z,3.00
2023-03-28T06:24:37.732Z,2.90
2023-03-28T06:27:04.227Z,2.60
2023-03-28T06:29:30.772Z,2.30
2023-03-28T06:31:57.425Z,2.40
2023-03-28T06:34:24.006Z,2.57
2023-03-28T06:36:51.042Z,2.30
2023-03-28T06:39:17.503Z,2.40
2023-03-28T06:41:44.595Z,2.47
2023-03-28T06:44:11.150Z,2.13
2023-03-28T06:46:37.713Z,2.90
2023-03-28T06:49:04.387Z,2.93
2023-03-28T06:51:30.953Z,3.57
2023-03-28T06:53:57.505Z,3.03
2023-03-28T06:56:24.087Z,2.97
2023-03-28T06:58:50.881Z,2.67
2023-03-28T07:01:17.608Z,2.03
2023-03-28T07:03:44.663Z,2.10
2023-03-28T07:06:11.379Z,2.20
2023-03-28T07:08:38.393Z,2.20
2023-03-28T07:11:05.403Z,2.37
2023-03-28T07:13:32.416Z,2.33
2023-03-28T07:16:00.843Z,2.20
2023-03-28T07:18:27.379Z,2.13
2023-03-28T07:21:03.861Z,2.30
2023-03-28T07:23:31.009Z,2.43
2023-03-28T07:25:57.469Z,2.17
2023-03-28T07:28:24.349Z,2.87
2023-03-28T07:30:53.613Z,1.90
2023-03-28T07:33:26.677Z,2.43
2023-03-28T07:36:00.598Z,2.00
2023-03-28T07:38:27.144Z,2.17
2023-03-28T07:40:54.834Z,2.37
2023-03-28T07:43:21.407Z,2.13
2023-03-28T07:45:47.906Z,2.37
2023-03-28T07:48:14.427Z,2.23
2023-03-28T07:50:42.834Z,1.80
2023-03-28T07:53:09.386Z,1.80
2023-03-28T07:55:48.343Z,2.30
2023-03-28T07:58:21.011Z,2.20
2023-03-28T08:00:47.492Z,2.50
2023-03-28T08:03:14.575Z,1.90
2023-03-28T08:05:41.704Z,2.10
2023-03-28T08:08:08.203Z,2.20
2023-03-28T08:10:34.870Z,1.93
2023-03-28T08:13:01.327Z,2.17
2023-03-28T08:15:27.835Z,2.03
2023-03-28T08:17:54.395Z,2.03
2023-03-28T08:20:21.432Z,1.90
2023-03-28T08:22:48.062Z,1.90
2023-03-28T08:25:14.541Z,1.97
2023-03-28T08:27:40.996Z,2.13
2023-03-28T08:30:07.865Z,2.60
2023-03-28T08:32:34.407Z,2.43
2023-03-28T08:35:05.851Z,1.90
2023-03-28T08:37:32.975Z,2.00
2023-03-28T08:40:00.680Z,1.73
2023-03-28T08:42:36.555Z,1.63
2023-03-28T08:45:28.055Z,1.50
2023-03-28T08:48:17.496Z,2.00
2023-03-28T08:51:17.855Z,2.07
2023-03-28T08:53:47.918Z,1.83
2023-03-28T08:56:15.608Z,1.73
2023-03-28T08:58:51.377Z,2.17
2023-03-28T09:01:22.143Z,1.77
2023-03-28T09:03:50.251Z,1.70
2023-03-28T09:06:43.313Z,1.80
2023-03-28T09:09:10.221Z,1.57
2023-03-28T09:11:52.127Z,1.63
2023-03-28T09:14:51.459Z,2.30
2023-03-28T09:17:27.649Z,2.03
2023-03-28T09:20:01.533Z,2.10
2023-03-28T09:22:45.814Z,1.80
2023-03-28T09:25:18.538Z,1.83
2023-03-28T09:28:13.357Z,1.60
2023-03-28T09:30:43.962Z,1.70
2023-03-28T09:33:16.090Z,1.90
2023-03-28T09:35:43.438Z,1.80
2023-03-28T09:38:30.137Z,1.77
2023-03-28T09:40:58.968Z,1.90
2023-03-28T09:43:34.968Z,1.43
2023-03-28T09:46:10.495Z,1.63
2023-03-28T09:48:38.311Z,1.67
2023-03-28T09:51:07.025Z,2.03
2023-03-28T09:53:37.803Z,1.80
2023-03-28T09:56:08.400Z,1.83
2023-03-28T09:58:58.932Z,1.83
2023-03-28T10:01:40.488Z,1.77
2023-03-28T10:04:14.346Z,2.00
2023-03-28T10:06:42.320Z,1.90
2023-03-28T10:09:24.339Z,1.80
2023-03-28T10:11:56.466Z,2.00
2023-03-28T10:14:32.076Z,2.23
2023-03-28T10:17:22.104Z,1.57
2023-03-28T10:19:49.160Z,1.93
2023-03-28T10:22:20.225Z,1.70
2023-03-28T10:24:47.683Z,2.07
2023-03-28T10:27:26.861Z,1.97
2023-03-28T10:29:55.374Z,1.73
2023-03-28T10:32:27.248Z,2.10
2023-03-28T10:35:08.592Z,1.50
2023-03-28T10:37:35.461Z,1.80
2023-03-28T10:40:23.460Z,2.20
2023-03-28T10:42:50.889Z,1.80
2023-03-28T10:45:20.701Z,2.00
2023-03-28T10:47:49.886Z,1.93
2023-03-28T10:50:29.157Z,1.80
2023-03-28T10:53:20.440Z,2.03
2023-03-28T10:56:10.953Z,2.93
2023-03-28T10:58:40.967Z,3.03
2023-03-28T11:01:18.291Z,2.43
2023-03-28T11:03:44.835Z,1.80
2023-03-28T11:06:22.133Z,1.63
2023-03-28T11:09:03.844Z,1.90
2023-03-28T11:11:47.946Z,2.00
2023-03-28T11:14:35.959Z,2.10
2023-03-28T11:17:38.419Z,1.67
2023-03-28T11:20:25.348Z,1.73
2023-03-28T11:23:06.208Z,1.90
2023-03-28T11:25:45.222Z,1.70
2023-03-28T11:29:06.218Z,2.33
2023-03-28T11:31:41.311Z,2.20
2023-03-28T11:34:21.797Z,1.83
2023-03-28T11:36:58.775Z,2.30
2023-03-28T11:39:42.910Z,3.40
2023-03-28T11:42:15.288Z,2.67
2023-03-28T11:44:46.057Z,2.47
2023-03-28T11:47:22.935Z,2.47
2023-03-28T11:49:58.551Z,1.93
2023-03-28T11:52:33.295Z,1.80
2023-03-28T11:55:15.077Z,1.97
2023-03-28T11:57:59.183Z,1.90
2023-03-28T12:00:49.051Z,1.67
2023-03-28T12:03:43.881Z,2.00
2023-03-28T12:06:13.067Z,1.97
2023-03-28T12:08:45.831Z,2.50
2023-03-28T12:11:19.585Z,2.07
2023-03-28T12:14:01.393Z,2.27
2023-03-28T12:16:42.079Z,2.67
2023-03-28T12:19:11.148Z,2.50
2023-03-28T12:21:42.564Z,2.90
2023-03-28T12:24:20.375Z,3.27
2023-03-28T12:26:59.498Z,2.87
2023-03-28T12:29:49.667Z,3.00
2023-03-28T12:32:42.191Z,2.97
2023-03-28T12:35:24.768Z,2.83
2023-03-28T12:38:20.501Z,3.07
2023-03-28T12:41:00.934Z,4.07
2023-03-28T12:43:52.069Z,2.93
2023-03-28T12:46:23.884Z,2.07
2023-03-28T12:48:56.755Z,1.70
2023-03-28T12:51:40.504Z,2.17
2023-03-28T12:54:24.478Z,1.80
2023-03-28T12:57:11.523Z,2.30
2023-03-28T12:59:41.291Z,2.30
2023-03-28T13:02:40.438Z,1.87
2023-03-28T13:05:13.470Z,2.27
2023-03-28T13:07:57.718Z,2.77
2023-03-28T13:11:03.063Z,3.43
2023-03-28T13:13:45.747Z,2.93
2023-03-28T13:16:26.734Z,2.33
2023-03-28T13:19:07.326Z,2.73
2023-03-28T13:21:51.205Z,2.50
2023-03-28T13:24:31.029Z,2.17
2023-03-28T13:27:01.329Z,2.43
2023-03-28T13:29:47.618Z,1.90
2023-03-28T13:32:24.503Z,2.10
2023-03-28T13:34:59.987Z,2.50
2023-03-28T13:37:43.183Z,2.50
2023-03-28T13:40:50.773Z,2.87
2023-03-28T13:43:23.709Z,2.07
2023-03-28T13:45:51.990Z,2.10
2023-03-28T13:48:18.652Z,2.17
2023-03-28T13:50:45.723Z,2.90
2023-03-28T13:53:12.245Z,2.80
2023-03-28T13:55:38.906Z,2.40
2023-03-28T13:58:05.434Z,2.57
2023-03-28T14:00:32.109Z,2.40
2023-03-28T14:03:03.454Z,2.80
2023-03-28T14:05:32.381Z,2.43
2023-03-28T14:08:20.735Z,2.70
2023-03-28T14:10:47.931Z,2.60
2023-03-28T14:13:26.177Z,2.50
2023-03-28T14:15:53.598Z,2.93
2023-03-28T14:18:26.033Z,1.97
2023-03-28T14:20:54.516Z,2.30
2023-03-28T14:23:31.245Z,2.60
2023-03-28T14:26:02.903Z,2.30
2023-03-28T14:28:30.212Z,2.73
2023-03-28T14:30:56.975Z,2.60
2023-03-28T14:33:24.371Z,2.50
2023-03-28T14:35:59.143Z,3.20
2023-03-28T14:38:32.043Z,2.50
2023-03-28T14:41:12.924Z,2.23
2023-03-28T14:43:39.658Z,2.53
2023-03-28T14:46:08.368Z,2.63
2023-03-28T14:48:36.826Z,2.90
2023-03-28T14:51:05.799Z,2.50
2023-03-28T14:53:37.658Z,2.33
2023-03-28T14:56:09.500Z,2.97
2023-03-28T14:58:38.545Z,3.20
2023-03-28T15:01:06.236Z,2.80
2023-03-28T15:03:35.954Z,2.87
2023-03-28T15:06:03.063Z,3.37
2023-03-28T15:08:34.595Z,3.13
2023-03-28T15:11:05.509Z,3.80
2023-03-28T15:13:35.817Z,3.07
2023-03-28T15:16:04.921Z,3.60
2023-03-28T15:18:34.196Z,3.13
2023-03-28T15:21:02.555Z,4.30
2023-03-28T15:23:53.798Z,3.80
2023-03-28T15:26:25.622Z,2.50
2023-03-28T15:28:53.990Z,4.60
2023-03-28T15:31:21.379Z,2.50
2023-03-28T15:33:50.152Z,2.40
2023-03-28T15:36:18.965Z,1.80
2023-03-28T15:38:49.648Z,2.60
2023-03-28T15:41:27.922Z,1.97
2023-03-28T15:43:54.334Z,2.63
2023-03-28T15:46:22.813Z,2.60
2023-03-28T15:48:49.351Z,3.37
2023-03-28T15:51:18.216Z,2.10
2023-03-28T15:53:49.047Z,2.00
2023-03-28T15:56:18.678Z,2.17
2023-03-28T15:58:46.408Z,2.40
2023-03-28T16:01:29.404Z,2.00
2023-03-28T16:04:16.010Z,1.90
2023-03-28T16:06:45.326Z,1.97
2023-03-28T16:12:56.079Z,2.57
2023-03-28T16:15:22.779Z,2.37
2023-03-28T16:17:50.095Z,2.27
2023-03-28T16:20:20.455Z,2.30
2023-03-28T16:22:47.812Z,2.43
2023-03-28T16:25:15.300Z,2.70
2023-03-28T16:27:42.945Z,2.67
2023-03-28T16:30:27.373Z,2.60
2023-03-28T16:32:55.116Z,2.93
2023-03-28T16:35:22.886Z,2.27
2023-03-28T16:37:49.979Z,2.50
2023-03-28T16:40:16.910Z,2.60
2023-03-28T16:42:43.770Z,2.27
2023-03-28T16:45:14.438Z,2.70
2023-03-28T16:47:44.733Z,2.43
2023-03-28T16:52:58.654Z,2.70
2023-03-28T16:55:25.861Z,3.73
2023-03-28T16:57:57.005Z,2.37
2023-03-28T17:00:28.505Z,2.40
2023-03-28T17:03:17.114Z,2.60
2023-03-28T17:05:43.791Z,3.03
2023-03-28T17:08:10.312Z,2.60
2023-03-28T17:10:40.836Z,2.43
2023-03-28T17:13:13.986Z,2.20
2023-03-28T17:15:45.021Z,3.10
2023-03-28T17:18:11.563Z,3.20
2023-03-28T17:20:58.898Z,4.00
2023-03-28T17:23:28.441Z,2.53
2023-03-28T17:25:57.887Z,3.00
2023-03-28T17:28:27.663Z,3.27
2023-03-28T17:30:54.855Z,3.10
2023-03-28T17:33:23.161Z,2.90
2023-03-28T17:36:23.986Z,3.23
2023-03-28T17:38:52.228Z,2.87
2023-03-28T17:41:21.006Z,2.87
2023-03-28T17:43:47.949Z,3.00
2023-03-28T17:46:15.537Z,2.50
2023-03-28T17:48:43.312Z,3.10
2023-03-28T17:51:13.228Z,2.80
2023-03-28T17:53:41.538Z,2.83
2023-03-28T17:56:28.481Z,2.80
2023-03-28T17:58:56.163Z,2.67
2023-03-28T18:01:28.007Z,3.10
2023-03-28T18:03:54.888Z,3.50
2023-03-28T18:06:21.506Z,3.27
2023-03-28T18:08:48.415Z,3.50
2023-03-28T18:11:17.707Z,3.03
2023-03-28T18:13:44.647Z,2.93
2023-03-28T18:16:13.550Z,3.13
2023-03-28T18:18:41.322Z,3.37
2023-03-28T18:21:08.559Z,4.03
2023-03-28T18:23:36.056Z,5.10
2023-03-28T18:26:03.392Z,4.30
2023-03-28T18:28:30.274Z,4.10
2023-03-28T18:31:15.499Z,3.60
2023-03-28T18:33:43.020Z,3.00
2023-03-28T18:36:10.717Z,4.13
2023-03-28T18:38:42.367Z,3.80
2023-03-28T18:41:09.728Z,4.27
2023-03-28T18:43:37.749Z,3.93
2023-03-28T18:46:05.562Z,3.30
2023-03-28T18:48:32.681Z,4.07
2023-03-28T18:50:59.389Z,3.90
2023-03-28T18:53:27.587Z,4.13
2023-03-28T18:55:54.815Z,3.70
2023-03-28T18:58:24.004Z,3.43
2023-03-28T19:00:59.240Z,3.20
2023-03-28T19:03:30.990Z,4.40
2023-03-28T19:05:59.425Z,5.50
2023-03-28T19:08:26.347Z,4.10
2023-03-28T19:10:57.138Z,3.47
2023-03-28T19:13:24.312Z,3.27
2023-03-28T19:16:01.365Z,3.83
2023-03-28T19:18:28.824Z,4.50
2023-03-28T19:20:56.194Z,3.50
2023-03-28T19:23:24.212Z,5.47
2023-03-28T19:25:50.875Z,7.10
2023-03-28T19:28:18.572Z,8.10
2023-03-28T19:30:45.396Z,6.00
2023-03-28T19:33:12.225Z,5.60
2023-03-28T19:35:39.820Z,5.63
2023-03-28T19:38:07.014Z,6.70
2023-03-28T19:40:33.745Z,6.03
2023-03-28T19:43:00.768Z,10.23
2023-03-28T19:45:32.288Z,8.83
2023-03-28T19:47:59.933Z,6.23
2023-03-28T19:50:26.531Z,7.03
2023-03-28T19:52:53.017Z,7.33
2023-03-28T19:55:19.571Z,7.20
2023-03-28T19:57:46.209Z,6.93
2023-03-28T20:00:13.460Z,5.50
2023-03-28T20:02:40.076Z,5.20
2023-03-28T20:05:07.112Z,4.67
2023-03-28T20:07:33.835Z,4.40
2023-03-28T20:10:01.015Z,4.87
2023-03-28T20:12:28.729Z,4.17
2023-03-28T20:14:56.996Z,4.10
2023-03-28T20:17:23.806Z,3.80
2023-03-28T20:19:51.695Z,3.93
2023-03-28T20:22:20.181Z,3.33
2023-03-28T20:24:48.980Z,3.13
2023-03-28T20:27:17.259Z,4.00
2023-03-28T20:29:45.512Z,3.67
2023-03-28T20:32:12.000Z,3.60
2023-03-28T20:34:38.516Z,3.73
2023-03-28T20:37:05.062Z,3.40
2023-03-28T20:39:35.283Z,3.77
2023-03-28T20:42:05.792Z,3.40
2023-03-28T20:44:38.300Z,3.60
2023-03-28T20:47:07.791Z,3.77
2023-03-28T20:49:36.040Z,3.23
2023-03-28T20:52:02.769Z,3.17
2023-03-28T20:54:29.509Z,3.13
2023-03-28T20:56:56.219Z,3.30
2023-03-28T20:59:23.856Z,3.00
2023-03-28T21:01:51.574Z,2.90
2023-03-28T21:04:18.878Z,3.90
2023-03-28T21:06:46.526Z,4.20
2023-03-28T21:09:18.422Z,3.87
2023-03-28T21:11:45.372Z,3.07
2023-03-28T21:14:13.881Z,2.77
2023-03-28T21:16:41.061Z,2.70
2023-03-28T21:19:32.406Z,2.73
2023-03-28T21:21:58.884Z,2.67
2023-03-28T21:24:26.294Z,2.97
2023-03-28T21:26:53.150Z,2.87
2023-03-28T21:29:19.583Z,2.87
2023-03-28T21:31:46.346Z,2.67
2023-03-28T21:34:12.840Z,2.83
2023-03-28T21:36:39.345Z,2.73
2023-03-28T21:39:05.828Z,3.00
2023-03-28T21:41:32.309Z,3.40
2023-03-28T21:43:58.813Z,3.50
2023-03-28T21:46:25.722Z,3.57
2023-03-28T21:48:52.346Z,4.03
2023-03-28T21:51:18.884Z,4.03
2023-03-28T21:53:45.992Z,3.73
2023-03-28T21:56:14.606Z,5.13
2023-03-28T21:58:41.317Z,4.00
2023-03-28T22:01:08.348Z,3.70
2023-03-28T22:03:38.221Z,2.93
2023-03-28T22:06:05.104Z,3.47
2023-03-28T22:08:31.700Z,2.90
2023-03-28T22:11:02.341Z,3.60
2023-03-28T22:13:29.947Z,3.60
2023-03-28T22:15:58.578Z,3.77
2023-03-28T22:18:25.980Z,3.73
2023-03-28T22:20:55.582Z,3.80
2023-03-28T22:23:23.424Z,3.47
2023-03-28T22:25:50.744Z,3.40
2023-03-28T22:28:17.299Z,4.03
2023-03-28T22:30:43.834Z,4.23
2023-03-28T22:33:11.178Z,4.33
2023-03-28T22:35:38.238Z,3.70
2023-03-28T22:38:05.873Z,3.47
2023-03-28T22:40:32.471Z,4.10
2023-03-28T22:42:59.022Z,3.90
2023-03-28T22:45:28.947Z,4.23
2023-03-28T22:48:00.345Z,4.10
2023-03-28T22:50:27.741Z,4.20
2023-03-28T22:52:54.301Z,3.60
2023-03-28T22:55:23.044Z,4.20
2023-03-28T22:57:51.656Z,4.30
2023-03-28T23:00:18.966Z,4.03
2023-03-28T23:02:46.691Z,4.50
2023-03-28T23:05:13.651Z,4.30
2023-03-28T23:07:41.595Z,4.10
2023-03-28T23:10:10.758Z,4.50
2023-03-28T23:12:37.490Z,4.87
2023-03-28T23:15:04.161Z,4.80
2023-03-28T23:17:30.771Z,5.07
2023-03-28T23:19:57.322Z,4.70
2023-03-28T23:22:23.905Z,4.97
2023-03-28T23:24:50.739Z,5.53
2023-03-28T23:27:18.773Z,6.03
2023-03-28T23:29:45.720Z,6.37
2023-03-28T23:32:12.265Z,6.60
2023-03-28T23:34:39.010Z,7.30
2023-03-28T23:37:05.599Z,7.57
2023-03-28T23:39:32.439Z,7.40
2023-03-28T23:41:58.982Z,7.87
2023-03-28T23:44:25.440Z,8.20
2023-03-28T23:46:51.909Z,8.73
2023-03-28T23:49:18.402Z,8.67
2023-03-28T23:51:45.037Z,9.23
2023-03-28T23:54:12.592Z,9.53
2023-03-28T23:56:39.299Z,9.93
2023-03-28T23:59:05.840Z,10.13
